createdAt,value
2023-05-03T00:00:30.339Z,88.34
2023-05-03T00:01:30.362Z,88.53
2023-05-03T00:02:30.437Z,88.62
2023-05-03T00:03:30.391Z,88.71
2023-05-03T00:04:30.419Z,88.24
2023-05-03T00:05:30.436Z,88.43
2023-05-03T00:06:30.467Z,88.48
2023-05-03T00:07:30.473Z,88.20
2023-05-03T00:08:30.496Z,88.86
2023-05-03T00:09:30.521Z,88.86
2023-05-03T00:10:30.532Z,88.86
2023-05-03T00:11:30.553Z,88.76
2023-05-03T00:12:30.574Z,89.14
2023-05-03T00:13:30.601Z,89.33
2023-05-03T00:14:30.611Z,89.33
2023-05-03T00:15:30.640Z,89.62
2023-05-03T00:16:30.668Z,89.43
2023-05-03T00:17:30.712Z,89.14
2023-05-03T00:18:30.708Z,90.09
2023-05-03T00:19:31.789Z,89.33
2023-05-03T00:20:30.747Z,89.72
2023-05-03T00:21:30.793Z,89.90
2023-05-03T00:22:30.771Z,89.33
2023-05-03T00:23:30.799Z,90.19
2023-05-03T00:24:30.811Z,89.90
2023-05-03T00:25:30.846Z,90.38
2023-05-03T00:26:30.874Z,90.57
2023-05-03T00:27:30.870Z,91.14
2023-05-03T00:28:30.901Z,90.95
2023-05-03T00:29:30.902Z,90.57
2023-05-03T00:30:30.954Z,90.47
2023-05-03T00:31:31.011Z,91.09
2023-05-03T00:32:30.984Z,91.19
2023-05-03T00:33:31.001Z,91.52
2023-05-03T00:34:31.032Z,91.28
2023-05-03T00:35:31.035Z,91.47
2023-05-03T00:36:31.055Z,91.85
2023-05-03T00:37:31.073Z,92.14
2023-05-03T00:38:31.088Z,91.66
2023-05-03T00:39:31.119Z,92.14
2023-05-03T00:40:31.139Z,92.14
2023-05-03T00:41:31.170Z,92.33
2023-05-03T00:42:31.169Z,93.08
2023-05-03T00:43:31.182Z,92.90
2023-05-03T00:44:31.204Z,92.80
2023-05-03T00:45:31.226Z,92.61
2023-05-03T00:46:31.261Z,92.52
2023-05-03T00:47:31.294Z,92.23
2023-05-03T00:48:31.287Z,92.80
2023-05-03T00:49:31.320Z,92.23
2023-05-03T00:50:31.342Z,92.42
2023-05-03T00:51:31.343Z,92.52
2023-05-03T00:52:31.366Z,92.71
2023-05-03T00:53:31.392Z,92.42
2023-05-03T00:54:31.401Z,92.42
2023-05-03T00:55:31.440Z,92.52
2023-05-03T00:56:37.877Z,92.61
2023-05-03T00:57:31.496Z,93.37
2023-05-03T00:58:31.488Z,93.46
2023-05-03T00:59:31.502Z,93.37
2023-05-03T01:00:31.518Z,93.27
2023-05-03T01:01:31.644Z,93.56
2023-05-03T01:02:31.644Z,93.75
2023-05-03T01:03:31.726Z,93.37
2023-05-03T01:04:31.610Z,93.56
2023-05-03T01:05:31.613Z,93.46
2023-05-03T01:06:31.686Z,93.94
2023-05-03T01:07:31.653Z,93.94
2023-05-03T01:08:31.670Z,93.65
2023-05-03T01:09:31.698Z,93.94
2023-05-03T01:10:31.717Z,93.65
2023-05-03T01:11:31.769Z,94.03
2023-05-03T01:12:31.746Z,94.23
2023-05-03T01:13:31.768Z,94.13
2023-05-03T01:14:31.785Z,94.23
2023-05-03T01:15:31.805Z,94.60
2023-05-03T01:16:31.907Z,94.60
2023-05-03T01:17:31.918Z,94.51
2023-05-03T01:18:31.871Z,94.60
2023-05-03T01:19:31.887Z,94.70
2023-05-03T01:20:31.923Z,94.89
2023-05-03T01:21:33.666Z,95.17
2023-05-03T01:22:31.944Z,94.51
2023-05-03T01:23:31.964Z,94.89
2023-05-03T01:24:31.983Z,94.79
2023-05-03T01:25:32.000Z,94.98
2023-05-03T01:26:32.020Z,94.79
2023-05-03T01:27:32.054Z,94.89
2023-05-03T01:28:32.060Z,95.27
2023-05-03T01:29:32.088Z,95.07
2023-05-03T01:30:32.114Z,95.07
2023-05-03T01:31:32.257Z,94.89
2023-05-03T01:32:32.157Z,94.89
2023-05-03T01:33:32.176Z,94.89
2023-05-03T01:34:32.169Z,94.93
2023-05-03T01:35:32.195Z,95.03
2023-05-03T01:36:32.212Z,95.41
2023-05-03T01:37:32.232Z,95.88
2023-05-03T01:38:32.247Z,95.50
2023-05-03T01:39:32.276Z,95.31
2023-05-03T01:40:32.287Z,95.50
2023-05-03T01:41:32.316Z,95.69
2023-05-03T01:42:32.326Z,95.60
2023-05-03T01:43:32.361Z,95.98
2023-05-03T01:44:32.364Z,95.98
2023-05-03T01:45:32.435Z,96.08
2023-05-03T01:46:32.478Z,95.88
2023-05-03T01:47:32.497Z,95.79
2023-05-03T01:48:32.451Z,95.98
2023-05-03T01:49:32.491Z,95.98
2023-05-03T01:50:32.483Z,95.88
2023-05-03T01:51:32.518Z,96.17
2023-05-03T01:52:32.555Z,96.08
2023-05-03T01:53:32.540Z,95.69
2023-05-03T01:54:32.558Z,96.08
2023-05-03T01:55:32.581Z,96.45
2023-05-03T01:56:32.597Z,96.45
2023-05-03T01:57:32.639Z,96.45
2023-05-03T01:58:32.642Z,96.45
2023-05-03T01:59:32.660Z,96.73
2023-05-03T02:00:32.673Z,96.36
2023-05-03T02:01:32.781Z,95.98
2023-05-03T02:02:32.728Z,96.64
2023-05-03T02:03:32.730Z,96.45
2023-05-03T02:04:32.884Z,96.83
2023-05-03T02:05:32.780Z,96.83
2023-05-03T02:06:32.850Z,96.92
2023-05-03T02:07:32.806Z,96.64
2023-05-03T02:08:32.826Z,97.12
2023-05-03T02:09:32.859Z,97.21
2023-05-03T02:10:32.865Z,97.02
2023-05-03T02:11:32.895Z,97.59
2023-05-03T02:12:32.903Z,97.50
2023-05-03T02:13:32.947Z,97.69
2023-05-03T02:14:32.946Z,97.02
2023-05-03T02:15:32.961Z,97.12
2023-05-03T02:16:33.006Z,97.40
2023-05-03T02:17:33.060Z,97.78
2023-05-03T02:18:33.017Z,97.50
2023-05-03T02:19:33.037Z,97.40
2023-05-03T02:20:33.054Z,97.59
2023-05-03T02:21:33.086Z,97.59
2023-05-03T02:22:33.095Z,97.40
2023-05-03T02:23:33.113Z,97.69
2023-05-03T02:24:33.124Z,97.97
2023-05-03T02:25:33.151Z,98.16
2023-05-03T02:26:33.196Z,98.07
2023-05-03T02:27:33.209Z,98.07
2023-05-03T02:28:33.202Z,98.25
2023-05-03T02:29:33.253Z,97.88
2023-05-03T02:30:33.245Z,98.07
2023-05-03T02:31:33.389Z,97.88
2023-05-03T02:32:33.364Z,97.88
2023-05-03T02:33:33.319Z,97.88
2023-05-03T02:34:33.325Z,98.16
2023-05-03T02:35:33.338Z,98.11
2023-05-03T02:36:33.358Z,98.16
2023-05-03T02:37:33.382Z,97.92
2023-05-03T02:38:33.399Z,97.83
2023-05-03T02:39:33.425Z,98.39
2023-05-03T02:40:33.431Z,98.11
2023-05-03T02:41:33.456Z,98.49
2023-05-03T02:42:33.468Z,98.39
2023-05-03T02:43:33.490Z,98.39
2023-05-03T02:44:33.866Z,98.21
2023-05-03T02:45:33.522Z,98.21
2023-05-03T02:46:33.599Z,98.21
2023-05-03T02:47:33.744Z,98.39
2023-05-03T02:48:33.582Z,98.49
2023-05-03T02:49:33.628Z,98.77
2023-05-03T02:50:33.626Z,98.30
2023-05-03T02:51:33.661Z,98.30
2023-05-03T02:52:33.662Z,98.39
2023-05-03T02:53:33.678Z,98.77
2023-05-03T02:54:33.695Z,98.77
2023-05-03T02:55:33.709Z,98.77
2023-05-03T02:56:33.771Z,99.06
2023-05-03T02:57:33.752Z,99.06
2023-05-03T02:58:33.768Z,99.15
2023-05-03T02:59:33.796Z,98.68
2023-05-03T03:00:33.812Z,98.87
2023-05-03T03:01:33.932Z,98.87
2023-05-03T03:02:33.886Z,98.96
2023-05-03T03:03:33.937Z,99.63
2023-05-03T03:04:33.890Z,99.53
2023-05-03T03:05:33.907Z,99.25
2023-05-03T03:06:34.013Z,99.44
2023-05-03T03:07:33.935Z,99.91
2023-05-03T03:08:33.966Z,99.72
2023-05-03T03:09:33.978Z,99.44
2023-05-03T03:10:34.000Z,99.99
2023-05-03T03:11:34.027Z,99.99
2023-05-03T03:12:34.043Z,99.99
2023-05-03T03:13:34.061Z,99.99
2023-05-03T03:14:34.085Z,99.99
2023-05-03T03:15:34.099Z,99.99
2023-05-03T03:16:34.136Z,99.91
2023-05-03T03:17:34.194Z,99.99
2023-05-03T03:18:34.166Z,99.91
2023-05-03T03:19:34.177Z,99.99
2023-05-03T03:20:34.222Z,99.99
2023-05-03T03:21:34.207Z,99.91
2023-05-03T03:22:34.248Z,99.96
2023-05-03T03:23:34.264Z,99.99
2023-05-03T03:24:34.280Z,99.99
2023-05-03T03:25:34.297Z,99.99
2023-05-03T03:26:34.310Z,99.99
2023-05-03T03:27:34.332Z,99.99
2023-05-03T03:28:34.349Z,99.99
2023-05-03T03:29:34.372Z,99.99
2023-05-03T03:30:34.363Z,99.99
2023-05-03T03:31:34.430Z,99.99
2023-05-03T03:32:34.450Z,99.99
2023-05-03T03:33:34.434Z,99.99
2023-05-03T03:34:34.453Z,99.99
2023-05-03T03:35:34.487Z,99.99
2023-05-03T03:36:34.503Z,99.99
2023-05-03T03:37:34.552Z,99.99
2023-05-03T03:38:34.559Z,99.99
2023-05-03T03:39:34.556Z,99.99
2023-05-03T03:40:34.566Z,99.99
2023-05-03T03:41:34.589Z,99.99
2023-05-03T03:42:34.598Z,99.99
2023-05-03T03:43:34.612Z,99.99
2023-05-03T03:44:34.653Z,99.99
2023-05-03T03:45:34.691Z,99.99
2023-05-03T03:46:34.709Z,99.99
2023-05-03T03:47:34.725Z,99.99
2023-05-03T03:48:34.708Z,99.99
2023-05-03T03:49:34.753Z,99.99
2023-05-03T03:50:34.753Z,99.99
2023-05-03T03:51:34.761Z,99.99
2023-05-03T03:52:34.785Z,99.99
2023-05-03T03:53:34.822Z,99.99
2023-05-03T03:54:34.835Z,99.99
2023-05-03T03:55:34.846Z,99.99
2023-05-03T03:56:34.864Z,99.99
2023-05-03T03:57:34.873Z,99.99
2023-05-03T03:58:34.894Z,99.99
2023-05-03T03:59:34.922Z,99.99
2023-05-03T04:00:34.955Z,99.99
2023-05-03T04:01:34.948Z,99.99
2023-05-03T04:02:35.132Z,99.99
2023-05-03T04:03:35.092Z,99.99
2023-05-03T04:04:35.089Z,99.99
2023-05-03T04:05:35.039Z,99.99
2023-05-03T04:06:35.111Z,99.99
2023-05-03T04:07:35.074Z,99.99
2023-05-03T04:08:35.087Z,99.99
2023-05-03T04:09:35.090Z,99.99
2023-05-03T04:10:35.123Z,99.99
2023-05-03T04:11:35.170Z,99.99
2023-05-03T04:12:35.147Z,99.99
2023-05-03T04:13:35.172Z,99.99
2023-05-03T04:14:35.181Z,99.99
2023-05-03T04:15:35.193Z,99.99
2023-05-03T04:16:35.231Z,99.99
2023-05-03T04:17:35.302Z,99.99
2023-05-03T04:18:35.250Z,99.99
2023-05-03T04:19:35.272Z,99.99
2023-05-03T04:20:35.293Z,99.99
2023-05-03T04:21:35.308Z,99.99
2023-05-03T04:22:35.323Z,99.99
2023-05-03T04:23:35.344Z,99.99
2023-05-03T04:24:35.358Z,99.99
2023-05-03T04:25:35.409Z,99.99
2023-05-03T04:26:35.428Z,99.99
2023-05-03T04:27:35.420Z,99.99
2023-05-03T04:28:35.430Z,99.99
2023-05-03T04:29:35.457Z,99.73
2023-05-03T04:30:35.489Z,98.69
2023-05-03T04:31:35.494Z,97.64
2023-05-03T04:32:35.553Z,95.89
2023-05-03T04:33:35.549Z,95.03
2023-05-03T04:34:35.551Z,93.75
2023-05-03T04:35:35.570Z,92.32
2023-05-03T04:36:35.599Z,91.85
2023-05-03T04:37:35.611Z,90.99
2023-05-03T04:38:35.628Z,89.23
2023-05-03T04:39:35.654Z,88.67
2023-05-03T04:40:35.671Z,87.71
2023-05-03T04:41:35.701Z,87.14
2023-05-03T04:42:35.720Z,86.95
2023-05-03T04:43:35.731Z,86.57
2023-05-03T04:44:35.768Z,86.67
2023-05-03T04:45:35.774Z,86.99
2023-05-03T04:46:35.874Z,86.99
2023-05-03T04:47:35.870Z,86.57
2023-05-03T04:48:35.833Z,86.09
2023-05-03T04:49:35.857Z,85.75
2023-05-03T04:50:35.878Z,84.89
2023-05-03T04:51:35.913Z,83.98
2023-05-03T04:52:35.934Z,82.93
2023-05-03T04:53:35.945Z,82.03
2023-05-03T04:54:35.958Z,81.17
2023-05-03T04:55:35.980Z,80.50
2023-05-03T04:56:36.010Z,79.93
2023-05-03T04:57:36.024Z,79.02
2023-05-03T04:58:36.042Z,77.69
2023-05-03T04:59:36.085Z,77.01
2023-05-03T05:00:36.083Z,77.20
2023-05-03T05:01:36.150Z,76.54
2023-05-03T05:02:36.185Z,76.25
2023-05-03T05:03:36.301Z,75.87
2023-05-03T05:04:36.175Z,75.68
2023-05-03T05:05:36.189Z,75.20
2023-05-03T05:06:36.246Z,74.54
2023-05-03T05:07:36.240Z,74.54
2023-05-03T05:08:36.269Z,74.73
2023-05-03T05:09:36.280Z,74.54
2023-05-03T05:10:36.317Z,74.73
2023-05-03T05:11:36.359Z,74.73
2023-05-03T05:12:36.344Z,74.60
2023-05-03T05:13:36.386Z,74.88
2023-05-03T05:14:36.391Z,75.26
2023-05-03T05:15:36.418Z,75.36
2023-05-03T05:16:36.545Z,75.45
2023-05-03T05:17:36.632Z,75.74
2023-05-03T05:18:36.545Z,76.03
2023-05-03T05:19:36.497Z,76.12
2023-05-03T05:20:36.516Z,76.31
2023-05-03T05:21:36.543Z,76.31
2023-05-03T05:22:36.566Z,76.50
2023-05-03T05:23:36.685Z,76.31
2023-05-03T05:24:36.613Z,76.31
2023-05-03T05:25:36.634Z,75.93
2023-05-03T05:26:36.649Z,76.21
2023-05-03T05:27:36.673Z,76.50
2023-05-03T05:28:36.700Z,76.12
2023-05-03T05:29:36.725Z,76.69
2023-05-03T05:30:36.752Z,76.59
2023-05-03T05:31:36.806Z,77.07
2023-05-03T05:32:36.802Z,76.69
2023-05-03T05:33:36.802Z,77.36
2023-05-03T05:34:44.762Z,76.79
2023-05-03T05:35:36.848Z,77.40
2023-05-03T05:36:36.889Z,77.20
2023-05-03T05:37:36.896Z,77.15
2023-05-03T05:38:36.916Z,76.39
2023-05-03T05:39:36.990Z,75.62
2023-05-03T05:40:36.963Z,75.37
2023-05-03T05:41:37.007Z,74.71
2023-05-03T05:42:37.004Z,73.75
2023-05-03T05:43:37.045Z,73.41
2023-05-03T05:44:37.052Z,72.64
2023-05-03T05:45:37.074Z,72.23
2023-05-03T05:46:37.191Z,72.32
2023-05-03T05:47:37.162Z,71.08
2023-05-03T05:48:37.193Z,71.72
2023-05-03T05:49:37.188Z,71.62
2023-05-03T05:50:37.213Z,71.81
2023-05-03T05:51:37.236Z,72.34
2023-05-03T05:52:37.269Z,73.39
2023-05-03T05:53:37.308Z,73.65
2023-05-03T05:54:37.295Z,74.69
2023-05-03T05:55:37.446Z,75.13
2023-05-03T05:56:37.340Z,75.99
2023-05-03T05:57:37.381Z,76.65
2023-05-03T05:58:37.494Z,76.81
2023-05-03T05:59:37.401Z,77.28
2023-05-03T06:00:37.444Z,77.61
2023-05-03T06:01:37.481Z,78.17
2023-05-03T06:02:37.776Z,78.46
2023-05-03T06:03:37.507Z,78.41
2023-05-03T06:04:37.583Z,78.78
2023-05-03T06:05:37.637Z,78.73
2023-05-03T06:06:37.599Z,77.62
2023-05-03T06:07:37.590Z,76.42
2023-05-03T06:08:37.607Z,76.42
2023-05-03T06:09:37.656Z,74.84
2023-05-03T06:10:37.675Z,72.97
2023-05-03T06:11:37.701Z,70.77
2023-05-03T06:12:37.694Z,68.38
2023-05-03T06:13:37.717Z,67.24
2023-05-03T06:14:37.743Z,66.85
2023-05-03T06:15:37.766Z,67.52
2023-05-03T06:16:37.817Z,67.24
2023-05-03T06:17:37.861Z,67.05
2023-05-03T06:18:37.854Z,66.60
2023-05-03T06:19:37.863Z,66.70
2023-05-03T06:20:37.897Z,65.84
2023-05-03T06:21:37.934Z,65.01
2023-05-03T06:22:37.946Z,64.72
2023-05-03T06:23:37.972Z,63.96
2023-05-03T06:24:38.006Z,64.28
2023-05-03T06:25:38.013Z,63.13
2023-05-03T06:26:38.041Z,63.03
2023-05-03T06:27:38.070Z,62.84
2023-05-03T06:28:38.105Z,62.87
2023-05-03T06:29:38.120Z,61.91
2023-05-03T06:30:38.160Z,60.93
2023-05-03T06:31:38.237Z,60.96
2023-05-03T06:32:38.207Z,60.96
2023-05-03T06:33:38.224Z,60.96
2023-05-03T06:34:38.256Z,61.05
2023-05-03T06:35:38.275Z,60.55
2023-05-03T06:36:38.304Z,60.45
2023-05-03T06:37:38.334Z,61.02
2023-05-03T06:38:38.355Z,61.51
2023-05-03T06:39:38.408Z,61.60
2023-05-03T06:40:38.648Z,61.38
2023-05-03T06:41:38.441Z,61.76
2023-05-03T06:42:38.471Z,62.24
2023-05-03T06:43:38.518Z,62.90
2023-05-03T06:44:38.587Z,63.39
2023-05-03T06:45:38.586Z,63.10
2023-05-03T06:46:38.716Z,63.10
2023-05-03T06:47:38.641Z,62.90
2023-05-03T06:48:38.653Z,63.13
2023-05-03T06:49:38.656Z,62.84
2023-05-03T06:50:38.719Z,62.46
2023-05-03T06:51:38.713Z,61.69
2023-05-03T06:52:38.738Z,61.88
2023-05-03T06:53:38.772Z,61.69
2023-05-03T06:54:38.825Z,62.84
2023-05-03T06:55:38.815Z,62.65
2023-05-03T06:56:38.848Z,62.84
2023-05-03T06:57:38.874Z,62.37
2023-05-03T06:58:38.916Z,61.98
2023-05-03T06:59:38.928Z,61.88
2023-05-03T07:00:38.963Z,61.88
2023-05-03T07:01:39.004Z,61.79
2023-05-03T07:02:39.080Z,61.98
2023-05-03T07:03:41.675Z,62.08
2023-05-03T07:04:39.068Z,62.11
2023-05-03T07:05:39.105Z,60.35
2023-05-03T07:06:52.548Z,59.84
2023-05-03T07:07:39.159Z,60.90
2023-05-03T07:08:39.185Z,61.57
2023-05-03T07:09:43.279Z,62.62
2023-05-03T07:10:39.235Z,62.59
2023-05-03T07:11:39.257Z,63.45
2023-05-03T07:12:39.289Z,63.07
2023-05-03T07:13:39.310Z,63.23
2023-05-03T07:14:39.343Z,63.60
2023-05-03T07:15:39.510Z,64.65
2023-05-03T07:16:39.418Z,65.04
2023-05-03T07:17:39.437Z,66.28
2023-05-03T07:18:39.452Z,65.96
2023-05-03T07:19:39.480Z,66.06
2023-05-03T07:20:39.484Z,66.25
2023-05-03T07:21:39.514Z,66.44
2023-05-03T07:22:39.535Z,66.72
2023-05-03T07:23:39.573Z,66.69
2023-05-03T07:24:39.656Z,66.31
2023-05-03T07:25:39.623Z,66.31
2023-05-03T07:26:39.633Z,66.50
2023-05-03T07:27:39.658Z,66.78
2023-05-03T07:28:39.702Z,66.78
2023-05-03T07:29:39.710Z,67.99
2023-05-03T07:30:39.733Z,68.38
2023-05-03T07:31:39.756Z,68.03
2023-05-03T07:32:39.897Z,67.27
2023-05-03T07:33:39.893Z,67.36
2023-05-03T07:34:39.833Z,66.69
2023-05-03T07:35:39.852Z,66.60
2023-05-03T07:36:39.899Z,66.78
2023-05-03T07:37:39.920Z,66.69
2023-05-03T07:38:39.930Z,66.78
2023-05-03T07:39:39.965Z,66.02
2023-05-03T07:40:40.056Z,66.02
2023-05-03T07:41:40.003Z,66.12
2023-05-03T07:42:40.015Z,66.12
2023-05-03T07:43:40.055Z,66.35
2023-05-03T07:44:40.067Z,65.39
2023-05-03T07:45:40.148Z,65.58
2023-05-03T07:46:40.108Z,66.25
2023-05-03T07:47:40.318Z,65.30
2023-05-03T07:48:40.158Z,63.86
2023-05-03T07:49:40.207Z,63.76
2023-05-03T07:50:40.212Z,63.76
2023-05-03T07:51:40.221Z,64.81
2023-05-03T07:52:40.280Z,63.76
2023-05-03T07:53:40.275Z,62.91
2023-05-03T07:54:40.295Z,63.10
2023-05-03T07:55:40.324Z,63.96
2023-05-03T07:56:40.349Z,63.45
2023-05-03T07:57:40.386Z,62.88
2023-05-03T07:58:41.091Z,62.88
2023-05-03T07:59:40.419Z,63.54
2023-05-03T08:00:40.437Z,63.54
2023-05-03T08:01:40.460Z,63.54
2023-05-03T08:02:40.646Z,63.45
2023-05-03T08:03:40.797Z,63.35
2023-05-03T08:04:40.697Z,62.97
2023-05-03T08:05:40.628Z,62.40
2023-05-03T08:06:40.612Z,62.68
2023-05-03T08:07:40.602Z,62.88
2023-05-03T08:08:40.623Z,62.75
2023-05-03T08:09:40.648Z,62.46
2023-05-03T08:10:40.700Z,63.04
2023-05-03T08:11:43.167Z,62.84
2023-05-03T08:12:40.721Z,63.51
2023-05-03T08:13:40.743Z,64.09
2023-05-03T08:14:40.765Z,64.47
2023-05-03T08:15:40.806Z,65.23
2023-05-03T08:16:40.832Z,64.94
2023-05-03T08:17:40.871Z,64.47
2023-05-03T08:18:40.863Z,64.56
2023-05-03T08:19:40.930Z,65.70
2023-05-03T08:20:40.905Z,65.52
2023-05-03T08:21:40.929Z,64.85
2023-05-03T08:22:40.964Z,65.13
2023-05-03T08:23:40.972Z,65.04
2023-05-03T08:24:41.007Z,65.52
2023-05-03T08:25:41.025Z,65.99
2023-05-03T08:26:41.064Z,66.66
2023-05-03T08:27:41.067Z,66.94
2023-05-03T08:28:41.091Z,66.22
2023-05-03T08:29:41.117Z,65.93
2023-05-03T08:30:41.142Z,65.74
2023-05-03T08:31:41.373Z,65.36
2023-05-03T08:32:41.225Z,64.88
2023-05-03T08:33:41.213Z,64.02
2023-05-03T08:34:41.228Z,63.45
2023-05-03T08:35:41.251Z,63.35
2023-05-03T08:36:41.276Z,63.83
2023-05-03T08:37:41.297Z,64.53
2023-05-03T08:38:41.326Z,63.67
2023-05-03T08:39:41.384Z,62.68
2023-05-03T08:40:41.375Z,62.49
2023-05-03T08:41:41.389Z,62.97
2023-05-03T08:42:41.413Z,63.45
2023-05-03T08:43:41.438Z,64.21
2023-05-03T08:44:41.460Z,64.12
2023-05-03T08:45:41.481Z,63.83
2023-05-03T08:46:41.564Z,63.16
2023-05-03T08:47:41.622Z,64.15
2023-05-03T08:48:41.552Z,63.76
2023-05-03T08:49:41.577Z,63.10
2023-05-03T08:50:41.607Z,62.71
2023-05-03T08:51:41.687Z,61.66
2023-05-03T08:52:41.646Z,61.76
2023-05-03T08:53:41.666Z,61.66
2023-05-03T08:54:41.686Z,62.43
2023-05-03T08:55:41.728Z,62.71
2023-05-03T08:56:41.771Z,63.13
2023-05-03T08:57:41.761Z,63.32
2023-05-03T08:58:41.804Z,63.70
2023-05-03T08:59:41.806Z,63.13
2023-05-03T09:00:41.828Z,61.72
2023-05-03T09:01:41.901Z,60.93
2023-05-03T09:02:42.052Z,60.17
2023-05-03T09:03:41.953Z,59.78
2023-05-03T09:04:41.920Z,60.46
2023-05-03T09:05:41.945Z,60.93
2023-05-03T09:06:42.013Z,61.51
2023-05-03T09:07:42.063Z,62.15
2023-05-03T09:08:42.014Z,62.52
2023-05-03T09:09:43.006Z,63.00
2023-05-03T09:10:42.118Z,63.76
2023-05-03T09:11:42.097Z,63.76
2023-05-03T09:12:42.168Z,64.53
2023-05-03T09:13:42.134Z,64.15
2023-05-03T09:14:42.173Z,64.15
2023-05-03T09:15:42.188Z,64.53
2023-05-03T09:16:42.243Z,65.01
2023-05-03T09:17:42.299Z,64.43
2023-05-03T09:18:42.246Z,63.57
2023-05-03T09:19:42.275Z,62.71
2023-05-03T09:20:42.305Z,62.62
2023-05-03T09:21:42.319Z,63.57
2023-05-03T09:22:42.343Z,63.29
2023-05-03T09:23:42.376Z,62.43
2023-05-03T09:24:42.396Z,62.71
2023-05-03T09:25:42.419Z,63.10
2023-05-03T09:26:42.438Z,63.60
2023-05-03T09:27:42.463Z,63.13
2023-05-03T09:28:42.493Z,63.03
2023-05-03T09:29:42.507Z,63.32
2023-05-03T09:30:42.532Z,63.03
2023-05-03T09:31:42.579Z,62.75
2023-05-03T09:32:42.635Z,63.13
2023-05-03T09:33:42.603Z,63.60
2023-05-03T09:34:42.625Z,63.80
2023-05-03T09:35:42.684Z,64.65
2023-05-03T09:36:44.006Z,64.94
2023-05-03T09:37:42.703Z,63.51
2023-05-03T09:38:42.720Z,63.23
2023-05-03T09:39:42.802Z,63.23
2023-05-03T09:40:42.785Z,62.75
2023-05-03T09:41:42.794Z,62.75
2023-05-03T09:42:42.814Z,61.89
2023-05-03T09:43:42.855Z,61.29
2023-05-03T09:44:42.890Z,62.08
2023-05-03T09:45:42.910Z,62.94
2023-05-03T09:46:42.906Z,63.13
2023-05-03T09:47:42.975Z,62.84
2023-05-03T09:48:42.955Z,61.69
2023-05-03T09:49:42.976Z,61.66
2023-05-03T09:50:43.022Z,60.90
2023-05-03T09:51:43.024Z,60.42
2023-05-03T09:52:43.046Z,59.85
2023-05-03T09:53:43.077Z,60.33
2023-05-03T09:54:43.102Z,60.52
2023-05-03T09:55:43.206Z,60.61
2023-05-03T09:56:43.141Z,61.29
2023-05-03T09:57:43.158Z,61.57
2023-05-03T09:58:43.190Z,62.05
2023-05-03T09:59:43.212Z,61.76
2023-05-03T10:00:43.231Z,61.66
2023-05-03T10:01:43.301Z,61.47
2023-05-03T10:02:43.347Z,61.79
2023-05-03T10:03:43.324Z,61.98
2023-05-03T10:04:43.354Z,62.75
2023-05-03T10:05:43.350Z,62.65
2023-05-03T10:06:43.442Z,63.03
2023-05-03T10:07:43.476Z,63.03
2023-05-03T10:08:43.447Z,63.13
2023-05-03T10:09:43.445Z,63.64
2023-05-03T10:10:43.467Z,63.70
2023-05-03T10:11:43.542Z,62.94
2023-05-03T10:12:43.510Z,63.60
2023-05-03T10:13:43.541Z,62.94
2023-05-03T10:14:43.596Z,62.75
2023-05-03T10:15:43.642Z,63.03
2023-05-03T10:16:43.620Z,62.75
2023-05-03T10:17:48.276Z,62.84
2023-05-03T10:18:43.688Z,62.37
2023-05-03T10:19:43.722Z,60.46
2023-05-03T10:20:43.705Z,60.07
2023-05-03T10:21:43.752Z,59.12
2023-05-03T10:22:43.762Z,58.64
2023-05-03T10:23:43.777Z,58.73
2023-05-03T10:24:43.836Z,58.36
2023-05-03T10:25:43.842Z,59.59
2023-05-03T10:26:43.836Z,59.91
2023-05-03T10:27:43.896Z,60.07
2023-05-03T10:28:43.912Z,60.20
2023-05-03T10:29:43.930Z,59.50
2023-05-03T10:30:43.928Z,60.17
2023-05-03T10:31:44.128Z,60.27
2023-05-03T10:32:43.996Z,59.78
2023-05-03T10:33:44.006Z,59.98
2023-05-03T10:34:45.185Z,59.78
2023-05-03T10:35:44.068Z,60.36
2023-05-03T10:36:49.834Z,60.64
2023-05-03T10:37:44.091Z,61.51
2023-05-03T10:38:44.112Z,61.92
2023-05-03T10:39:44.139Z,61.72
2023-05-03T10:40:44.162Z,61.63
2023-05-03T10:41:44.188Z,61.82
2023-05-03T10:42:44.208Z,61.63
2023-05-03T10:43:44.248Z,61.44
2023-05-03T10:44:44.254Z,61.54
2023-05-03T10:45:44.278Z,60.96
2023-05-03T10:46:44.406Z,59.91
2023-05-03T10:47:44.343Z,59.44
2023-05-03T10:48:44.348Z,59.15
2023-05-03T10:49:44.386Z,59.44
2023-05-03T10:50:44.418Z,59.53
2023-05-03T10:51:44.416Z,59.72
2023-05-03T10:52:44.444Z,59.72
2023-05-03T10:53:44.467Z,61.06
2023-05-03T10:54:44.497Z,60.96
2023-05-03T10:55:44.518Z,60.49
2023-05-03T10:56:44.538Z,60.20
2023-05-03T10:57:44.558Z,60.68
2023-05-03T10:58:44.593Z,61.44
2023-05-03T10:59:44.648Z,61.82
2023-05-03T11:00:44.652Z,60.61
2023-05-03T11:01:44.710Z,60.52
2023-05-03T11:02:44.714Z,61.09
2023-05-03T11:03:44.718Z,60.71
2023-05-03T11:04:44.805Z,60.99
2023-05-03T11:05:44.765Z,61.19
2023-05-03T11:06:44.780Z,60.80
2023-05-03T11:07:44.802Z,60.99
2023-05-03T11:08:44.823Z,59.84
2023-05-03T11:09:46.442Z,57.75
2023-05-03T11:10:44.867Z,57.84
2023-05-03T11:11:44.897Z,57.36
2023-05-03T11:12:44.937Z,57.55
2023-05-03T11:13:44.962Z,57.93
2023-05-03T11:14:44.962Z,58.29
2023-05-03T11:15:47.656Z,57.81
2023-05-03T11:16:45.029Z,58.19
2023-05-03T11:17:45.086Z,58.38
2023-05-03T11:18:45.053Z,59.18
2023-05-03T11:19:45.082Z,59.84
2023-05-03T11:20:45.113Z,60.42
2023-05-03T11:21:46.420Z,60.23
2023-05-03T11:22:45.165Z,59.66
2023-05-03T11:23:45.180Z,58.89
2023-05-03T11:24:45.197Z,58.32
2023-05-03T11:25:45.225Z,58.70
2023-05-03T11:26:45.242Z,58.98
2023-05-03T11:27:47.651Z,59.18
2023-05-03T11:28:45.290Z,59.84
2023-05-03T11:29:45.318Z,59.84
2023-05-03T11:30:45.337Z,59.94
2023-05-03T11:31:45.454Z,58.61
2023-05-03T11:32:45.463Z,58.12
2023-05-03T11:33:47.869Z,58.12
2023-05-03T11:34:45.434Z,58.89
2023-05-03T11:35:45.479Z,57.84
2023-05-03T11:36:45.496Z,57.84
2023-05-03T11:37:45.502Z,58.80
2023-05-03T11:38:45.526Z,58.41
2023-05-03T11:39:45.568Z,58.51
2023-05-03T11:40:45.574Z,59.08
2023-05-03T11:41:45.607Z,58.32
2023-05-03T11:42:45.626Z,59.66
2023-05-03T11:43:45.647Z,59.94
2023-05-03T11:44:45.679Z,60.33
2023-05-03T11:45:45.893Z,60.64
2023-05-03T11:46:45.871Z,60.45
2023-05-03T11:47:45.800Z,59.40
2023-05-03T11:48:45.765Z,59.69
2023-05-03T11:49:45.816Z,59.69
2023-05-03T11:50:45.814Z,59.69
2023-05-03T11:51:48.506Z,59.97
2023-05-03T11:52:45.883Z,58.86
2023-05-03T11:53:45.889Z,57.68
2023-05-03T11:54:45.912Z,57.87
2023-05-03T11:55:45.956Z,58.06
2023-05-03T11:56:45.967Z,58.34
2023-05-03T11:57:45.990Z,59.01
2023-05-03T11:58:46.015Z,59.20
2023-05-03T11:59:46.040Z,58.63
2023-05-03T12:00:46.108Z,58.83
2023-05-03T12:01:46.101Z,58.15
2023-05-03T12:02:46.208Z,57.97
2023-05-03T12:03:46.333Z,58.25
2023-05-03T12:04:46.705Z,59.01
2023-05-03T12:05:46.519Z,58.73
2023-05-03T12:06:47.151Z,57.97
2023-05-03T12:07:46.369Z,57.99
2023-05-03T12:08:47.031Z,58.37
2023-05-03T12:09:53.270Z,59.23
2023-05-03T12:10:46.877Z,58.95
2023-05-03T12:11:48.141Z,58.66
2023-05-03T12:12:50.000Z,57.68
2023-05-03T12:13:47.768Z,56.62
2023-05-03T12:14:46.540Z,56.72
2023-05-03T12:16:46.639Z,56.34
2023-05-03T12:17:49.823Z,56.27
2023-05-03T12:18:47.365Z,56.34
2023-05-03T12:19:48.775Z,57.61
2023-05-03T12:21:54.120Z,57.99
2023-05-03T12:22:46.826Z,57.90
2023-05-03T12:23:46.697Z,57.70
2023-05-03T12:24:59.683Z,57.90
2023-05-03T12:25:49.004Z,57.80
2023-05-03T12:26:48.725Z,58.18
2023-05-03T12:27:52.732Z,58.28
2023-05-03T12:28:46.806Z,58.86
2023-05-03T12:29:47.542Z,57.70
2023-05-03T12:30:47.097Z,57.48
2023-05-03T12:31:49.145Z,57.04
2023-05-03T12:32:46.983Z,56.72
2023-05-03T12:34:00.587Z,57.20
2023-05-03T12:34:47.308Z,56.46
2023-05-03T12:36:49.010Z,56.15
2023-05-03T12:37:49.375Z,56.37
2023-05-03T12:38:49.057Z,56.65
2023-05-03T12:39:53.742Z,57.61
2023-05-03T12:40:47.182Z,56.17
2023-05-03T12:42:47.113Z,56.46
2023-05-03T12:43:47.207Z,56.46
2023-05-03T12:44:48.255Z,57.70
2023-05-03T12:45:53.043Z,57.04
2023-05-03T12:46:47.268Z,57.32
2023-05-03T12:47:49.977Z,57.90
2023-05-03T12:48:47.370Z,57.80
2023-05-03T12:49:47.421Z,57.23
2023-05-03T12:50:49.971Z,56.65
2023-05-03T12:51:55.538Z,57.51
2023-05-03T12:52:51.448Z,57.51
2023-05-03T12:53:47.782Z,57.70
2023-05-03T12:54:49.259Z,57.80
2023-05-03T12:55:51.335Z,57.64
2023-05-03T12:56:48.224Z,57.23